sensor_id;sensor_type;location;lat;lon;timestamp;P1;durP1;ratioP1;P2;durP2;ratioP2
11445;SDS011;5779;64.178;15.432;2023-02-05T00:01:40;0.00;;;0.00;;
11445;SDS011;5779;64.178;15.432;2023-02-05T00:04:28;0.00;;;0.00;;
11445;SDS011;5779;64.178;15.432;2023-02-05T00:07:14;0.10;;;0.10;;
11445;SDS011;5779;64.178;15.432;2023-02-05T00:10:01;0.10;;;0.10;;
11445;SDS011;5779;64.178;15.432;2023-02-05T00:12:49;0.20;;;0.20;;
11445;SDS011;5779;64.178;15.432;2023-02-05T00:15:39;0.10;;;0.10;;
11445;SDS011;5779;64.178;15.432;2023-02-05T00:18:26;0.00;;;0.00;;
11445;SDS011;5779;64.178;15.432;2023-02-05T00:21:15;0.00;;;0.00;;
11445;SDS011;5779;64.178;15.432;2023-02-05T00:24:03;0.07;;;0.07;;
11445;SDS011;5779;64.178;15.432;2023-02-05T00:26:50;0.00;;;0.00;;
11445;SDS011;5779;64.178;15.432;2023-02-05T00:29:37;0.00;;;0.00;;
11445;SDS011;5779;64.178;15.432;2023-02-05T00:32:26;0.10;;;0.10;;
11445;SDS011;5779;64.178;15.432;2023-02-05T00:35:13;0.10;;;0.10;;
11445;SDS011;5779;64.178;15.432;2023-02-05T00:38:00;0.10;;;0.10;;
11445;SDS011;5779;64.178;15.432;2023-02-05T00:40:47;0.10;;;0.10;;
11445;SDS011;5779;64.178;15.432;2023-02-05T00:43:34;0.10;;;0.10;;
11445;SDS011;5779;64.178;15.432;2023-02-05T00:46:22;0.10;;;0.10;;
11445;SDS011;5779;64.178;15.432;2023-02-05T00:49:10;0.10;;;0.10;;
11445;SDS011;5779;64.178;15.432;2023-02-05T00:51:57;0.10;;;0.10;;
11445;SDS011;5779;64.178;15.432;2023-02-05T00:54:44;0.00;;;0.00;;
11445;SDS011;5779;64.178;15.432;2023-02-05T00:57:31;0.10;;;0.10;;
11445;SDS011;5779;64.178;15.432;2023-02-05T01:00:18;0.10;;;0.10;;
11445;SDS011;5779;64.178;15.432;2023-02-05T01:03:05;0.10;;;0.10;;
11445;SDS011;5779;64.178;15.432;2023-02-05T01:05:54;0.00;;;0.00;;
11445;SDS011;5779;64.178;15.432;2023-02-05T01:08:41;0.00;;;0.00;;
11445;SDS011;5779;64.178;15.432;2023-02-05T01:11:28;0.00;;;0.00;;
11445;SDS011;5779;64.178;15.432;2023-02-05T01:14:15;0.00;;;0.00;;
11445;SDS011;5779;64.178;15.432;2023-02-05T01:17:02;0.10;;;0.10;;
11445;SDS011;5779;64.178;15.432;2023-02-05T01:19:49;0.00;;;0.00;;
11445;SDS011;5779;64.178;15.432;2023-02-05T01:22:37;0.10;;;0.10;;
11445;SDS011;5779;64.178;15.432;2023-02-05T01:25:24;0.10;;;0.10;;
11445;SDS011;5779;64.178;15.432;2023-02-05T01:28:11;0.10;;;0.10;;
11445;SDS011;5779;64.178;15.432;2023-02-05T01:30:58;0.10;;;0.10;;
11445;SDS011;5779;64.178;15.432;2023-02-05T01:33:45;0.10;;;0.10;;
11445;SDS011;5779;64.178;15.432;2023-02-05T01:36:32;0.10;;;0.10;;
11445;SDS011;5779;64.178;15.432;2023-02-05T01:39:20;0.87;;;0.87;;
11445;SDS011;5779;64.178;15.432;2023-02-05T01:42:14;0.10;;;0.10;;
11445;SDS011;5779;64.178;15.432;2023-02-05T01:45:24;0.00;;;0.00;;
11445;SDS011;5779;64.178;15.432;2023-02-05T01:48:36;0.00;;;0.00;;
11445;SDS011;5779;64.178;15.432;2023-02-05T01:51:28;0.10;;;0.10;;
11445;SDS011;5779;64.178;15.432;2023-02-05T01:54:16;0.10;;;0.10;;
11445;SDS011;5779;64.178;15.432;2023-02-05T01:57:08;0.00;;;0.00;;
11445;SDS011;5779;64.178;15.432;2023-02-05T01:59:58;0.10;;;0.10;;
11445;SDS011;5779;64.178;15.432;2023-02-05T02:02:45;0.00;;;0.00;;
11445;SDS011;5779;64.178;15.432;2023-02-05T02:05:32;0.20;;;0.20;;
11445;SDS011;5779;64.178;15.432;2023-02-05T02:08:19;0.10;;;0.10;;
11445;SDS011;5779;64.178;15.432;2023-02-05T02:11:06;0.10;;;0.10;;
11445;SDS011;5779;64.178;15.432;2023-02-05T02:13:57;0.10;;;0.10;;
11445;SDS011;5779;64.178;15.432;2023-02-05T02:16:46;0.10;;;0.10;;
11445;SDS011;5779;64.178;15.432;2023-02-05T02:19:35;0.10;;;0.10;;
11445;SDS011;5779;64.178;15.432;2023-02-05T02:22:36;0.10;;;0.10;;
11445;SDS011;5779;64.178;15.432;2023-02-05T02:29:05;0.10;;;0.10;;
11445;SDS011;5779;64.178;15.432;2023-02-05T02:32:00;0.10;;;0.10;;
11445;SDS011;5779;64.178;15.432;2023-02-05T02:34:54;0.10;;;0.10;;
11445;SDS011;5779;64.178;15.432;2023-02-05T02:37:45;0.10;;;0.10;;
11445;SDS011;5779;64.178;15.432;2023-02-05T02:40:39;0.00;;;0.00;;
11445;SDS011;5779;64.178;15.432;2023-02-05T02:43:30;0.10;;;0.10;;
11445;SDS011;5779;64.178;15.432;2023-02-05T02:46:26;0.10;;;0.10;;
11445;SDS011;5779;64.178;15.432;2023-02-05T02:49:17;0.20;;;0.20;;
11445;SDS011;5779;64.178;15.432;2023-02-05T02:52:10;0.10;;;0.10;;
11445;SDS011;5779;64.178;15.432;2023-02-05T02:54:59;0.63;;;0.63;;
11445;SDS011;5779;64.178;15.432;2023-02-05T02:57:51;0.07;;;0.07;;
11445;SDS011;5779;64.178;15.432;2023-02-05T03:00:40;0.20;;;0.10;;
11445;SDS011;5779;64.178;15.432;2023-02-05T03:03:32;0.20;;;0.20;;
11445;SDS011;5779;64.178;15.432;2023-02-05T03:06:22;0.10;;;0.10;;
11445;SDS011;5779;64.178;15.432;2023-02-05T03:09:11;0.17;;;0.17;;
11445;SDS011;5779;64.178;15.432;2023-02-05T03:12:03;0.10;;;0.10;;
11445;SDS011;5779;64.178;15.432;2023-02-05T03:14:51;0.00;;;0.00;;
11445;SDS011;5779;64.178;15.432;2023-02-05T03:17:38;0.00;;;0.00;;
11445;SDS011;5779;64.178;15.432;2023-02-05T03:20:29;0.00;;;0.00;;
11445;SDS011;5779;64.178;15.432;2023-02-05T03:23:21;0.07;;;0.07;;
11445;SDS011;5779;64.178;15.432;2023-02-05T03:26:20;0.10;;;0.10;;
11445;SDS011;5779;64.178;15.432;2023-02-05T03:29:10;0.00;;;0.00;;
11445;SDS011;5779;64.178;15.432;2023-02-05T03:32:00;0.00;;;0.00;;
11445;SDS011;5779;64.178;15.432;2023-02-05T03:34:58;0.00;;;0.00;;
11445;SDS011;5779;64.178;15.432;2023-02-05T03:37:59;0.00;;;0.00;;
11445;SDS011;5779;64.178;15.432;2023-02-05T03:40:56;0.00;;;0.00;;
11445;SDS011;5779;64.178;15.432;2023-02-05T03:43:49;0.10;;;0.10;;
11445;SDS011;5779;64.178;15.432;2023-02-05T03:46:45;0.10;;;0.10;;
11445;SDS011;5779;64.178;15.432;2023-02-05T03:49:39;0.10;;;0.10;;
11445;SDS011;5779;64.178;15.432;2023-02-05T03:52:37;0.10;;;0.10;;
11445;SDS011;5779;64.178;15.432;2023-02-05T03:55:34;0.00;;;0.00;;
11445;SDS011;5779;64.178;15.432;2023-02-05T03:58:28;0.00;;;0.00;;
11445;SDS011;5779;64.178;15.432;2023-02-05T04:01:18;0.10;;;0.10;;
11445;SDS011;5779;64.178;15.432;2023-02-05T04:04:06;0.10;;;0.10;;
11445;SDS011;5779;64.178;15.432;2023-02-05T04:06:53;0.00;;;0.00;;
11445;SDS011;5779;64.178;15.432;2023-02-05T04:09:40;0.00;;;0.00;;
11445;SDS011;5779;64.178;15.432;2023-02-05T04:12:29;0.10;;;0.10;;
11445;SDS011;5779;64.178;15.432;2023-02-05T04:15:16;0.00;;;0.00;;
11445;SDS011;5779;64.178;15.432;2023-02-05T04:18:03;0.07;;;0.07;;
11445;SDS011;5779;64.178;15.432;2023-02-05T04:20:51;0.00;;;0.00;;
11445;SDS011;5779;64.178;15.432;2023-02-05T04:23:39;0.10;;;0.10;;
11445;SDS011;5779;64.178;15.432;2023-02-05T04:26:26;0.00;;;0.00;;
11445;SDS011;5779;64.178;15.432;2023-02-05T04:29:14;0.10;;;0.10;;
11445;SDS011;5779;64.178;15.432;2023-02-05T04:32:01;0.10;;;0.10;;
11445;SDS011;5779;64.178;15.432;2023-02-05T04:34:48;0.10;;;0.10;;
11445;SDS011;5779;64.178;15.432;2023-02-05T04:37:35;0.10;;;0.10;;
11445;SDS011;5779;64.178;15.432;2023-02-05T04:40:22;0.00;;;0.00;;
11445;SDS011;5779;64.178;15.432;2023-02-05T04:43:08;0.10;;;0.10;;
11445;SDS011;5779;64.178;15.432;2023-02-05T04:45:57;0.10;;;0.10;;
11445;SDS011;5779;64.178;15.432;2023-02-05T04:48:49;0.10;;;0.10;;
11445;SDS011;5779;64.178;15.432;2023-02-05T04:51:36;0.10;;;0.10;;
11445;SDS011;5779;64.178;15.432;2023-02-05T04:54:23;0.10;;;0.10;;
11445;SDS011;5779;64.178;15.432;2023-02-05T04:57:11;0.13;;;0.13;;
11445;SDS011;5779;64.178;15.432;2023-02-05T04:59:59;0.10;;;0.10;;
11445;SDS011;5779;64.178;15.432;2023-02-05T05:02:49;0.10;;;0.10;;
11445;SDS011;5779;64.178;15.432;2023-02-05T05:05:36;0.10;;;0.10;;
11445;SDS011;5779;64.178;15.432;2023-02-05T05:08:23;0.10;;;0.10;;
11445;SDS011;5779;64.178;15.432;2023-02-05T05:11:10;0.00;;;0.00;;
11445;SDS011;5779;64.178;15.432;2023-02-05T05:14:00;0.10;;;0.10;;
11445;SDS011;5779;64.178;15.432;2023-02-05T05:16:47;0.10;;;0.10;;
11445;SDS011;5779;64.178;15.432;2023-02-05T05:19:36;0.10;;;0.10;;
11445;SDS011;5779;64.178;15.432;2023-02-05T05:22:23;0.10;;;0.10;;
11445;SDS011;5779;64.178;15.432;2023-02-05T05:25:10;0.10;;;0.10;;
11445;SDS011;5779;64.178;15.432;2023-02-05T05:27:57;0.10;;;0.10;;
11445;SDS011;5779;64.178;15.432;2023-02-05T05:30:44;0.10;;;0.10;;
11445;SDS011;5779;64.178;15.432;2023-02-05T05:33:32;0.10;;;0.10;;
11445;SDS011;5779;64.178;15.432;2023-02-05T05:36:20;0.10;;;0.10;;
11445;SDS011;5779;64.178;15.432;2023-02-05T05:39:07;0.10;;;0.10;;
11445;SDS011;5779;64.178;15.432;2023-02-05T05:42:12;0.10;;;0.10;;
11445;SDS011;5779;64.178;15.432;2023-02-05T05:45:16;0.10;;;0.10;;
11445;SDS011;5779;64.178;15.432;2023-02-05T05:48:03;0.10;;;0.10;;
11445;SDS011;5779;64.178;15.432;2023-02-05T05:50:52;0.00;;;0.00;;
11445;SDS011;5779;64.178;15.432;2023-02-05T05:53:41;0.10;;;0.10;;
11445;SDS011;5779;64.178;15.432;2023-02-05T05:56:28;0.10;;;0.10;;
11445;SDS011;5779;64.178;15.432;2023-02-05T05:59:15;0.10;;;0.10;;
11445;SDS011;5779;64.178;15.432;2023-02-05T06:02:02;0.10;;;0.10;;
11445;SDS011;5779;64.178;15.432;2023-02-05T06:04:49;0.10;;;0.10;;
11445;SDS011;5779;64.178;15.432;2023-02-05T06:07:36;0.10;;;0.10;;
11445;SDS011;5779;64.178;15.432;2023-02-05T06:10:25;0.10;;;0.10;;
11445;SDS011;5779;64.178;15.432;2023-02-05T06:13:12;0.10;;;0.10;;
11445;SDS011;5779;64.178;15.432;2023-02-05T06:15:59;0.10;;;0.10;;
11445;SDS011;5779;64.178;15.432;2023-02-05T06:18:46;0.10;;;0.10;;
11445;SDS011;5779;64.178;15.432;2023-02-05T06:21:32;0.10;;;0.10;;
11445;SDS011;5779;64.178;15.432;2023-02-05T06:24:20;0.10;;;0.10;;
11445;SDS011;5779;64.178;15.432;2023-02-05T06:27:08;0.10;;;0.10;;
11445;SDS011;5779;64.178;15.432;2023-02-05T06:29:55;0.00;;;0.00;;
11445;SDS011;5779;64.178;15.432;2023-02-05T06:32:42;0.10;;;0.10;;
11445;SDS011;5779;64.178;15.432;2023-02-05T06:35:30;0.10;;;0.10;;
11445;SDS011;5779;64.178;15.432;2023-02-05T06:38:17;0.10;;;0.10;;
11445;SDS011;5779;64.178;15.432;2023-02-05T06:41:04;0.10;;;0.10;;
11445;SDS011;5779;64.178;15.432;2023-02-05T06:43:52;0.10;;;0.10;;
11445;SDS011;5779;64.178;15.432;2023-02-05T06:46:39;0.10;;;0.10;;
11445;SDS011;5779;64.178;15.432;2023-02-05T06:49:26;0.10;;;0.10;;
11445;SDS011;5779;64.178;15.432;2023-02-05T06:52:14;0.10;;;0.10;;
11445;SDS011;5779;64.178;15.432;2023-02-05T06:55:01;0.10;;;0.10;;
11445;SDS011;5779;64.178;15.432;2023-02-05T06:57:48;0.10;;;0.10;;
11445;SDS011;5779;64.178;15.432;2023-02-05T07:00:37;0.10;;;0.10;;
11445;SDS011;5779;64.178;15.432;2023-02-05T07:03:23;0.10;;;0.10;;
11445;SDS011;5779;64.178;15.432;2023-02-05T07:06:10;0.53;;;0.47;;
11445;SDS011;5779;64.178;15.432;2023-02-05T07:08:57;0.10;;;0.10;;
11445;SDS011;5779;64.178;15.432;2023-02-05T07:11:44;0.10;;;0.10;;
11445;SDS011;5779;64.178;15.432;2023-02-05T07:14:35;0.10;;;0.10;;
11445;SDS011;5779;64.178;15.432;2023-02-05T07:17:24;0.10;;;0.10;;
11445;SDS011;5779;64.178;15.432;2023-02-05T07:20:10;0.10;;;0.10;;
11445;SDS011;5779;64.178;15.432;2023-02-05T07:22:57;0.10;;;0.10;;
11445;SDS011;5779;64.178;15.432;2023-02-05T07:25:45;0.10;;;0.10;;
11445;SDS011;5779;64.178;15.432;2023-02-05T07:28:32;0.10;;;0.10;;
11445;SDS011;5779;64.178;15.432;2023-02-05T07:31:18;0.10;;;0.10;;
11445;SDS011;5779;64.178;15.432;2023-02-05T07:34:07;0.10;;;0.10;;
11445;SDS011;5779;64.178;15.432;2023-02-05T07:36:54;0.10;;;0.10;;
11445;SDS011;5779;64.178;15.432;2023-02-05T07:39:41;0.10;;;0.10;;
11445;SDS011;5779;64.178;15.432;2023-02-05T07:42:27;0.10;;;0.10;;
11445;SDS011;5779;64.178;15.432;2023-02-05T07:45:15;0.10;;;0.10;;
11445;SDS011;5779;64.178;15.432;2023-02-05T07:48:03;0.10;;;0.10;;
11445;SDS011;5779;64.178;15.432;2023-02-05T07:50:51;0.10;;;0.10;;
11445;SDS011;5779;64.178;15.432;2023-02-05T07:53:38;0.00;;;0.00;;
11445;SDS011;5779;64.178;15.432;2023-02-05T07:56:25;0.40;;;0.40;;
11445;SDS011;5779;64.178;15.432;2023-02-05T07:59:12;0.10;;;0.10;;
11445;SDS011;5779;64.178;15.432;2023-02-05T08:01:59;0.10;;;0.10;;
11445;SDS011;5779;64.178;15.432;2023-02-05T08:04:46;0.10;;;0.10;;
11445;SDS011;5779;64.178;15.432;2023-02-05T08:07:34;0.00;;;0.00;;
11445;SDS011;5779;64.178;15.432;2023-02-05T08:10:22;0.10;;;0.10;;
11445;SDS011;5779;64.178;15.432;2023-02-05T08:13:09;0.10;;;0.10;;
11445;SDS011;5779;64.178;15.432;2023-02-05T08:15:56;0.20;;;0.20;;
11445;SDS011;5779;64.178;15.432;2023-02-05T08:18:46;0.67;;;0.67;;
11445;SDS011;5779;64.178;15.432;2023-02-05T08:21:34;0.10;;;0.10;;
11445;SDS011;5779;64.178;15.432;2023-02-05T08:24:22;0.10;;;0.10;;
11445;SDS011;5779;64.178;15.432;2023-02-05T08:27:09;0.10;;;0.10;;
11445;SDS011;5779;64.178;15.432;2023-02-05T08:29:55;0.10;;;0.10;;
11445;SDS011;5779;64.178;15.432;2023-02-05T08:32:45;0.10;;;0.10;;
11445;SDS011;5779;64.178;15.432;2023-02-05T08:35:32;0.00;;;0.00;;
11445;SDS011;5779;64.178;15.432;2023-02-05T08:38:19;0.10;;;0.10;;
11445;SDS011;5779;64.178;15.432;2023-02-05T08:41:08;0.10;;;0.10;;
11445;SDS011;5779;64.178;15.432;2023-02-05T08:43:57;0.00;;;0.00;;
11445;SDS011;5779;64.178;15.432;2023-02-05T08:46:44;0.10;;;0.10;;
11445;SDS011;5779;64.178;15.432;2023-02-05T08:49:31;0.10;;;0.10;;
11445;SDS011;5779;64.178;15.432;2023-02-05T08:52:18;0.10;;;0.10;;
11445;SDS011;5779;64.178;15.432;2023-02-05T08:55:05;0.10;;;0.10;;
11445;SDS011;5779;64.178;15.432;2023-02-05T08:57:53;0.10;;;0.10;;
11445;SDS011;5779;64.178;15.432;2023-02-05T09:00:40;0.10;;;0.10;;
11445;SDS011;5779;64.178;15.432;2023-02-05T09:03:28;0.00;;;0.00;;
11445;SDS011;5779;64.178;15.432;2023-02-05T09:06:15;0.10;;;0.10;;
11445;SDS011;5779;64.178;15.432;2023-02-05T09:09:02;0.10;;;0.10;;
11445;SDS011;5779;64.178;15.432;2023-02-05T09:11:49;0.00;;;0.00;;
11445;SDS011;5779;64.178;15.432;2023-02-05T09:14:37;0.10;;;0.10;;
11445;SDS011;5779;64.178;15.432;2023-02-05T09:17:25;0.10;;;0.10;;
11445;SDS011;5779;64.178;15.432;2023-02-05T09:20:12;0.07;;;0.07;;
11445;SDS011;5779;64.178;15.432;2023-02-05T09:22:59;0.10;;;0.10;;
11445;SDS011;5779;64.178;15.432;2023-02-05T09:25:46;0.10;;;0.10;;
11445;SDS011;5779;64.178;15.432;2023-02-05T09:28:33;0.10;;;0.10;;
11445;SDS011;5779;64.178;15.432;2023-02-05T09:31:21;0.10;;;0.10;;
11445;SDS011;5779;64.178;15.432;2023-02-05T09:34:08;0.10;;;0.10;;
11445;SDS011;5779;64.178;15.432;2023-02-05T09:36:55;0.10;;;0.10;;
11445;SDS011;5779;64.178;15.432;2023-02-05T09:39:42;0.10;;;0.10;;
11445;SDS011;5779;64.178;15.432;2023-02-05T09:42:30;0.10;;;0.10;;
11445;SDS011;5779;64.178;15.432;2023-02-05T09:45:27;0.20;;;0.20;;
11445;SDS011;5779;64.178;15.432;2023-02-05T09:51:35;0.10;;;0.10;;
11445;SDS011;5779;64.178;15.432;2023-02-05T09:54:26;0.10;;;0.10;;
11445;SDS011;5779;64.178;15.432;2023-02-05T09:57:16;0.00;;;0.00;;
11445;SDS011;5779;64.178;15.432;2023-02-05T10:00:19;0.10;;;0.10;;
11445;SDS011;5779;64.178;15.432;2023-02-05T10:03:16;0.10;;;0.10;;
11445;SDS011;5779;64.178;15.432;2023-02-05T10:06:14;0.10;;;0.10;;
11445;SDS011;5779;64.178;15.432;2023-02-05T10:09:23;0.10;;;0.10;;
11445;SDS011;5779;64.178;15.432;2023-02-05T10:12:22;0.10;;;0.10;;
11445;SDS011;5779;64.178;15.432;2023-02-05T10:15:22;0.20;;;0.20;;
11445;SDS011;5779;64.178;15.432;2023-02-05T10:18:23;0.00;;;0.00;;
11445;SDS011;5779;64.178;15.432;2023-02-05T10:21:22;0.10;;;0.10;;
11445;SDS011;5779;64.178;15.432;2023-02-05T10:24:30;0.10;;;0.10;;
11445;SDS011;5779;64.178;15.432;2023-02-05T10:27:26;0.10;;;0.10;;
11445;SDS011;5779;64.178;15.432;2023-02-05T10:30:23;0.10;;;0.10;;
11445;SDS011;5779;64.178;15.432;2023-02-05T10:33:16;0.10;;;0.10;;
11445;SDS011;5779;64.178;15.432;2023-02-05T10:36:04;0.10;;;0.10;;
11445;SDS011;5779;64.178;15.432;2023-02-05T10:38:56;0.80;;;0.80;;
11445;SDS011;5779;64.178;15.432;2023-02-05T10:41:43;1.27;;;0.40;;
11445;SDS011;5779;64.178;15.432;2023-02-05T10:44:37;0.97;;;0.80;;
11445;SDS011;5779;64.178;15.432;2023-02-05T10:47:37;0.10;;;0.10;;
11445;SDS011;5779;64.178;15.432;2023-02-05T10:50:35;0.10;;;0.10;;
11445;SDS011;5779;64.178;15.432;2023-02-05T10:53:38;1.80;;;0.37;;
11445;SDS011;5779;64.178;15.432;2023-02-05T10:56:26;0.20;;;0.20;;
11445;SDS011;5779;64.178;15.432;2023-02-05T10:59:15;0.53;;;0.53;;
11445;SDS011;5779;64.178;15.432;2023-02-05T11:02:07;0.47;;;0.47;;
11445;SDS011;5779;64.178;15.432;2023-02-05T11:04:57;0.13;;;0.13;;
11445;SDS011;5779;64.178;15.432;2023-02-05T11:07:47;0.20;;;0.20;;
11445;SDS011;5779;64.178;15.432;2023-02-05T11:10:36;0.10;;;0.10;;
11445;SDS011;5779;64.178;15.432;2023-02-05T11:13:25;0.10;;;0.10;;
11445;SDS011;5779;64.178;15.432;2023-02-05T11:16:13;0.97;;;0.93;;
11445;SDS011;5779;64.178;15.432;2023-02-05T11:19:00;0.60;;;0.60;;
11445;SDS011;5779;64.178;15.432;2023-02-05T11:21:48;0.30;;;0.30;;
11445;SDS011;5779;64.178;15.432;2023-02-05T11:24:37;2.90;;;1.30;;
11445;SDS011;5779;64.178;15.432;2023-02-05T11:27:26;0.40;;;0.40;;
11445;SDS011;5779;64.178;15.432;2023-02-05T11:30:20;3.60;;;0.77;;
11445;SDS011;5779;64.178;15.432;2023-02-05T11:33:22;0.40;;;0.40;;
11445;SDS011;5779;64.178;15.432;2023-02-05T11:36:13;2.97;;;1.53;;
11445;SDS011;5779;64.178;15.432;2023-02-05T11:39:03;0.40;;;0.33;;
11445;SDS011;5779;64.178;15.432;2023-02-05T11:41:51;1.70;;;1.60;;
11445;SDS011;5779;64.178;15.432;2023-02-05T11:44:41;2.30;;;0.90;;
11445;SDS011;5779;64.178;15.432;2023-02-05T11:47:35;14.30;;;2.07;;
11445;SDS011;5779;64.178;15.432;2023-02-05T11:50:25;3.50;;;0.63;;
11445;SDS011;5779;64.178;15.432;2023-02-05T11:53:15;1.50;;;0.73;;
11445;SDS011;5779;64.178;15.432;2023-02-05T11:56:06;3.27;;;0.83;;
11445;SDS011;5779;64.178;15.432;2023-02-05T11:58:59;15.47;;;1.50;;
11445;SDS011;5779;64.178;15.432;2023-02-05T12:01:46;2.67;;;1.77;;
11445;SDS011;5779;64.178;15.432;2023-02-05T12:04:37;9.80;;;2.17;;
11445;SDS011;5779;64.178;15.432;2023-02-05T12:07:33;0.33;;;0.33;;
11445;SDS011;5779;64.178;15.432;2023-02-05T12:10:25;1.53;;;0.63;;
11445;SDS011;5779;64.178;15.432;2023-02-05T12:13:17;22.83;;;2.07;;
11445;SDS011;5779;64.178;15.432;2023-02-05T12:16:12;2.10;;;0.83;;
11445;SDS011;5779;64.178;15.432;2023-02-05T12:19:10;0.67;;;0.67;;
11445;SDS011;5779;64.178;15.432;2023-02-05T12:22:05;0.30;;;0.30;;
11445;SDS011;5779;64.178;15.432;2023-02-05T12:25:08;16.10;;;0.93;;
11445;SDS011;5779;64.178;15.432;2023-02-05T12:28:06;2.27;;;0.63;;
11445;SDS011;5779;64.178;15.432;2023-02-05T12:31:07;0.77;;;0.57;;
11445;SDS011;5779;64.178;15.432;2023-02-05T12:34:08;6.60;;;1.03;;
11445;SDS011;5779;64.178;15.432;2023-02-05T12:37:21;5.47;;;1.73;;
11445;SDS011;5779;64.178;15.432;2023-02-05T12:40:28;5.40;;;1.50;;
11445;SDS011;5779;64.178;15.432;2023-02-05T12:43:30;1.60;;;0.90;;
11445;SDS011;5779;64.178;15.432;2023-02-05T12:46:36;5.60;;;1.43;;
11445;SDS011;5779;64.178;15.432;2023-02-05T12:49:36;1.53;;;0.83;;
11445;SDS011;5779;64.178;15.432;2023-02-05T12:52:36;1.07;;;0.93;;
11445;SDS011;5779;64.178;15.432;2023-02-05T12:55:41;11.90;;;1.13;;
11445;SDS011;5779;64.178;15.432;2023-02-05T12:58:38;1.60;;;0.73;;
11445;SDS011;5779;64.178;15.432;2023-02-05T13:01:32;7.73;;;1.37;;
11445;SDS011;5779;64.178;15.432;2023-02-05T13:04:26;4.57;;;1.70;;
11445;SDS011;5779;64.178;15.432;2023-02-05T13:07:22;3.40;;;1.60;;
11445;SDS011;5779;64.178;15.432;2023-02-05T13:10:17;7.47;;;0.80;;
11445;SDS011;5779;64.178;15.432;2023-02-05T13:13:09;7.20;;;0.97;;
11445;SDS011;5779;64.178;15.432;2023-02-05T13:16:00;1.27;;;1.00;;
11445;SDS011;5779;64.178;15.432;2023-02-05T13:18:53;1.70;;;0.77;;
11445;SDS011;5779;64.178;15.432;2023-02-05T13:21:45;0.30;;;0.30;;
11445;SDS011;5779;64.178;15.432;2023-02-05T13:24:51;1.10;;;0.43;;
11445;SDS011;5779;64.178;15.432;2023-02-05T13:28:01;0.20;;;0.20;;
11445;SDS011;5779;64.178;15.432;2023-02-05T13:31:21;6.30;;;1.30;;
11445;SDS011;5779;64.178;15.432;2023-02-05T13:34:11;0.80;;;0.60;;
11445;SDS011;5779;64.178;15.432;2023-02-05T13:40:39;2.07;;;1.10;;
11445;SDS011;5779;64.178;15.432;2023-02-05T13:43:44;1.93;;;0.83;;
11445;SDS011;5779;64.178;15.432;2023-02-05T13:50:21;2.27;;;0.87;;
11445;SDS011;5779;64.178;15.432;2023-02-05T13:53:29;1.17;;;0.50;;
11445;SDS011;5779;64.178;15.432;2023-02-05T13:56:37;2.83;;;1.10;;
11445;SDS011;5779;64.178;15.432;2023-02-05T13:59:35;0.87;;;0.57;;
11445;SDS011;5779;64.178;15.432;2023-02-05T14:02:28;0.93;;;0.63;;
11445;SDS011;5779;64.178;15.432;2023-02-05T14:05:26;4.83;;;0.93;;
11445;SDS011;5779;64.178;15.432;2023-02-05T14:08:18;1.57;;;0.80;;
11445;SDS011;5779;64.178;15.432;2023-02-05T14:11:07;0.83;;;0.57;;
11445;SDS011;5779;64.178;15.432;2023-02-05T14:20:40;8.37;;;0.73;;
11445;SDS011;5779;64.178;15.432;2023-02-05T14:26:44;1.17;;;0.40;;
11445;SDS011;5779;64.178;15.432;2023-02-05T14:29:39;2.77;;;0.83;;
11445;SDS011;5779;64.178;15.432;2023-02-05T14:35:44;1.60;;;0.60;;
11445;SDS011;5779;64.178;15.432;2023-02-05T14:38:32;3.03;;;1.10;;
11445;SDS011;5779;64.178;15.432;2023-02-05T14:41:22;1.03;;;0.93;;
11445;SDS011;5779;64.178;15.432;2023-02-05T14:44:14;7.93;;;1.77;;
11445;SDS011;5779;64.178;15.432;2023-02-05T14:47:05;5.40;;;0.97;;
11445;SDS011;5779;64.178;15.432;2023-02-05T14:50:05;3.07;;;1.27;;
11445;SDS011;5779;64.178;15.432;2023-02-05T14:52:56;2.00;;;1.03;;
11445;SDS011;5779;64.178;15.432;2023-02-05T14:55:44;6.10;;;1.03;;
11445;SDS011;5779;64.178;15.432;2023-02-05T14:58:33;3.27;;;1.60;;
11445;SDS011;5779;64.178;15.432;2023-02-05T15:04:40;0.50;;;0.50;;
11445;SDS011;5779;64.178;15.432;2023-02-05T15:07:34;1.57;;;0.77;;
11445;SDS011;5779;64.178;15.432;2023-02-05T15:10:22;5.17;;;1.27;;
11445;SDS011;5779;64.178;15.432;2023-02-05T15:13:12;3.10;;;1.17;;
11445;SDS011;5779;64.178;15.432;2023-02-05T15:16:08;0.73;;;0.73;;
11445;SDS011;5779;64.178;15.432;2023-02-05T15:19:04;7.20;;;1.27;;
11445;SDS011;5779;64.178;15.432;2023-02-05T15:21:54;1.80;;;0.93;;
11445;SDS011;5779;64.178;15.432;2023-02-05T15:24:42;0.53;;;0.40;;
11445;SDS011;5779;64.178;15.432;2023-02-05T15:27:33;4.13;;;2.73;;
11445;SDS011;5779;64.178;15.432;2023-02-05T15:30:27;2.90;;;1.40;;
11445;SDS011;5779;64.178;15.432;2023-02-05T15:33:26;8.03;;;1.17;;
11445;SDS011;5779;64.178;15.432;2023-02-05T15:36:25;2.03;;;1.13;;
11445;SDS011;5779;64.178;15.432;2023-02-05T15:39:18;0.27;;;0.27;;
11445;SDS011;5779;64.178;15.432;2023-02-05T15:42:14;9.60;;;1.50;;
11445;SDS011;5779;64.178;15.432;2023-02-05T15:48:10;3.50;;;1.60;;
11445;SDS011;5779;64.178;15.432;2023-02-05T15:51:01;3.43;;;1.47;;
11445;SDS011;5779;64.178;15.432;2023-02-05T15:53:55;3.37;;;1.00;;
11445;SDS011;5779;64.178;15.432;2023-02-05T15:56:47;3.43;;;1.77;;
11445;SDS011;5779;64.178;15.432;2023-02-05T15:59:37;5.87;;;1.37;;
11445;SDS011;5779;64.178;15.432;2023-02-05T16:02:26;0.60;;;0.60;;
11445;SDS011;5779;64.178;15.432;2023-02-05T16:05:15;2.17;;;0.87;;
11445;SDS011;5779;64.178;15.432;2023-02-05T16:08:13;5.73;;;1.87;;
11445;SDS011;5779;64.178;15.432;2023-02-05T16:11:02;4.70;;;1.33;;
11445;SDS011;5779;64.178;15.432;2023-02-05T16:14:00;3.07;;;1.13;;
11445;SDS011;5779;64.178;15.432;2023-02-05T16:16:55;3.20;;;1.00;;
11445;SDS011;5779;64.178;15.432;2023-02-05T16:19:47;3.10;;;1.30;;
11445;SDS011;5779;64.178;15.432;2023-02-05T16:22:37;3.37;;;1.77;;
11445;SDS011;5779;64.178;15.432;2023-02-05T16:25:33;4.27;;;1.57;;
11445;SDS011;5779;64.178;15.432;2023-02-05T16:28:29;3.27;;;1.30;;
11445;SDS011;5779;64.178;15.432;2023-02-05T16:31:23;2.63;;;1.27;;
11445;SDS011;5779;64.178;15.432;2023-02-05T16:34:13;1.87;;;1.10;;
11445;SDS011;5779;64.178;15.432;2023-02-05T16:37:03;2.07;;;1.20;;
11445;SDS011;5779;64.178;15.432;2023-02-05T16:39:52;1.83;;;1.07;;
11445;SDS011;5779;64.178;15.432;2023-02-05T16:42:41;0.60;;;0.60;;
11445;SDS011;5779;64.178;15.432;2023-02-05T16:45:31;1.87;;;0.80;;
11445;SDS011;5779;64.178;15.432;2023-02-05T16:48:19;6.80;;;1.70;;
11445;SDS011;5779;64.178;15.432;2023-02-05T16:51:12;2.67;;;2.03;;
11445;SDS011;5779;64.178;15.432;2023-02-05T16:54:27;1.07;;;0.67;;
11445;SDS011;5779;64.178;15.432;2023-02-05T16:57:21;3.60;;;1.10;;
11445;SDS011;5779;64.178;15.432;2023-02-05T17:00:17;0.30;;;0.30;;
11445;SDS011;5779;64.178;15.432;2023-02-05T17:03:13;2.77;;;1.30;;
11445;SDS011;5779;64.178;15.432;2023-02-05T17:06:06;12.10;;;1.63;;
11445;SDS011;5779;64.178;15.432;2023-02-05T17:08:58;3.47;;;1.30;;
11445;SDS011;5779;64.178;15.432;2023-02-05T17:11:51;1.10;;;0.93;;
11445;SDS011;5779;64.178;15.432;2023-02-05T17:14:37;9.73;;;1.63;;
11445;SDS011;5779;64.178;15.432;2023-02-05T17:17:25;2.47;;;0.87;;
11445;SDS011;5779;64.178;15.432;2023-02-05T17:20:17;2.03;;;1.10;;
11445;SDS011;5779;64.178;15.432;2023-02-05T17:23:09;3.00;;;1.23;;
11445;SDS011;5779;64.178;15.432;2023-02-05T17:25:59;2.60;;;1.30;;
11445;SDS011;5779;64.178;15.432;2023-02-05T17:28:49;3.10;;;2.00;;
11445;SDS011;5779;64.178;15.432;2023-02-05T17:31:38;3.20;;;0.87;;
11445;SDS011;5779;64.178;15.432;2023-02-05T17:34:25;2.07;;;0.97;;
11445;SDS011;5779;64.178;15.432;2023-02-05T17:37:12;4.40;;;1.50;;
11445;SDS011;5779;64.178;15.432;2023-02-05T17:40:00;5.37;;;1.43;;
11445;SDS011;5779;64.178;15.432;2023-02-05T17:42:48;6.10;;;1.97;;
11445;SDS011;5779;64.178;15.432;2023-02-05T17:45:36;1.63;;;0.97;;